createdAt,value
2018-07-24T00:02:15.156Z,23.30
2018-07-24T00:04:43.605Z,23.29
2018-07-24T00:07:12.762Z,23.27
2018-07-24T00:09:41.220Z,23.26
2018-07-24T00:12:09.688Z,23.20
2018-07-24T00:14:38.097Z,23.19
2018-07-24T00:17:06.539Z,23.15
2018-07-24T00:19:34.985Z,23.13
2018-07-24T00:22:04.235Z,23.12
2018-07-24T00:24:33.128Z,23.10
2018-07-24T00:27:01.697Z,23.09
2018-07-24T00:29:30.196Z,23.06
2018-07-24T00:31:58.675Z,23.04
2018-07-24T00:34:27.123Z,23.02
2018-07-24T00:36:56.904Z,23.01
2018-07-24T00:39:25.535Z,22.98
2018-07-24T00:41:53.949Z,22.98
2018-07-24T00:44:22.360Z,22.95
2018-07-24T00:46:50.801Z,22.93
2018-07-24T00:49:19.249Z,22.93
2018-07-24T00:51:48.435Z,22.89
2018-07-24T00:54:16.980Z,22.87
2018-07-24T00:56:45.820Z,22.86
2018-07-24T00:59:14.624Z,22.85
2018-07-24T01:01:43.183Z,22.84
2018-07-24T01:04:11.755Z,22.81
2018-07-24T01:06:40.566Z,22.80
2018-07-24T01:09:10.371Z,22.79
2018-07-24T01:11:38.931Z,22.75
2018-07-24T01:14:07.624Z,22.76
2018-07-24T01:16:36.109Z,22.75
2018-07-24T01:19:04.595Z,22.71
2018-07-24T01:21:33.073Z,22.69
2018-07-24T01:24:01.502Z,22.67
2018-07-24T01:26:29.968Z,22.65
2018-07-24T01:28:58.575Z,22.61
2018-07-24T01:31:27.113Z,22.58
2018-07-24T01:33:55.528Z,22.57
2018-07-24T01:36:24.289Z,22.55
2018-07-24T01:38:52.817Z,22.51
2018-07-24T01:41:21.634Z,22.48
2018-07-24T01:43:50.126Z,22.45
2018-07-24T01:46:18.772Z,22.42
2018-07-24T01:48:47.282Z,22.35
2018-07-24T01:51:16.737Z,22.26
2018-07-24T01:53:48.387Z,22.24
2018-07-24T01:56:16.872Z,22.24
2018-07-24T01:58:45.319Z,22.15
2018-07-24T02:01:13.755Z,22.12
2018-07-24T02:03:42.454Z,22.11
2018-07-24T02:06:11.127Z,22.07
2018-07-24T02:08:39.812Z,22.05
2018-07-24T02:11:08.513Z,22.02
2018-07-24T02:13:37.171Z,22.01
2018-07-24T02:16:05.622Z,22.02
2018-07-24T02:18:34.065Z,21.99
2018-07-24T02:21:02.476Z,21.99
2018-07-24T02:23:31.321Z,21.98
2018-07-24T02:25:59.762Z,21.96
2018-07-24T02:28:28.505Z,21.95
2018-07-24T02:30:57.178Z,21.92
2018-07-24T02:33:25.613Z,21.91
2018-07-24T02:35:54.261Z,21.88
2018-07-24T02:38:22.776Z,21.87
2018-07-24T02:40:51.257Z,21.86
2018-07-24T02:43:19.825Z,21.84
2018-07-24T02:45:48.373Z,21.82
2018-07-24T02:48:16.776Z,21.78
2018-07-24T02:50:45.252Z,21.77
2018-07-24T02:53:13.668Z,21.75
2018-07-24T02:55:42.207Z,21.75
2018-07-24T02:58:11.308Z,21.72
2018-07-24T03:00:39.758Z,21.70
2018-07-24T03:03:08.365Z,21.69
2018-07-24T03:05:37.012Z,21.67
2018-07-24T03:08:05.767Z,21.65
2018-07-24T03:10:34.213Z,21.65
2018-07-24T03:13:02.750Z,21.63
2018-07-24T03:15:31.359Z,21.63
2018-07-24T03:17:59.927Z,21.62
2018-07-24T03:20:28.414Z,21.61
2018-07-24T03:22:57.341Z,21.60
2018-07-24T03:25:26.003Z,21.58
2018-07-24T03:27:55.168Z,21.57
2018-07-24T03:30:23.873Z,21.55
2018-07-24T03:32:52.393Z,21.53
2018-07-24T03:35:21.068Z,21.52
2018-07-24T03:37:49.984Z,21.52
2018-07-24T03:40:18.702Z,21.50
2018-07-24T03:42:47.319Z,21.48
2018-07-24T03:45:16.079Z,21.45
2018-07-24T03:47:44.985Z,21.43
2018-07-24T03:50:14.078Z,21.41
2018-07-24T03:52:42.911Z,21.39
2018-07-24T03:55:12.029Z,21.40
2018-07-24T03:57:40.929Z,21.39
2018-07-24T04:00:09.826Z,21.40
2018-07-24T04:02:38.975Z,21.41
2018-07-24T04:05:07.806Z,21.42
2018-07-24T04:07:37.213Z,21.43
2018-07-24T04:10:06.245Z,21.45
2018-07-24T04:12:35.198Z,21.44
2018-07-24T04:15:03.982Z,21.45
2018-07-24T04:17:32.931Z,21.45
2018-07-24T04:20:01.732Z,21.47
2018-07-24T04:22:30.556Z,21.48
2018-07-24T04:24:59.903Z,21.49
2018-07-24T04:27:28.684Z,21.50
2018-07-24T04:29:57.941Z,21.52
2018-07-24T04:32:27.092Z,21.55
2018-07-24T04:34:56.015Z,21.57
2018-07-24T04:37:24.805Z,21.60
2018-07-24T04:39:53.915Z,21.62
2018-07-24T04:42:23.475Z,21.65
2018-07-24T04:44:52.541Z,21.69
2018-07-24T04:47:21.387Z,21.74
2018-07-24T04:49:50.189Z,21.77
2018-07-24T04:52:18.881Z,21.82
2018-07-24T04:54:47.786Z,21.86
2018-07-24T04:57:16.633Z,21.91
2018-07-24T04:59:45.211Z,21.94
2018-07-24T05:02:13.892Z,21.99
2018-07-24T05:04:42.713Z,22.03
2018-07-24T05:07:11.858Z,22.06
2018-07-24T05:09:40.534Z,22.09
2018-07-24T05:12:09.940Z,22.12
2018-07-24T05:14:39.740Z,22.15
2018-07-24T05:17:08.534Z,22.18
2018-07-24T05:19:37.314Z,22.23
2018-07-24T05:22:06.369Z,22.26
2018-07-24T05:24:35.206Z,22.30
2018-07-24T05:27:04.586Z,22.34
2018-07-24T05:29:33.429Z,22.36
2018-07-24T05:32:02.484Z,22.38
2018-07-24T05:34:31.318Z,22.42
2018-07-24T05:37:00.202Z,22.44
2018-07-24T05:39:28.827Z,22.47
2018-07-24T05:41:57.799Z,22.50
2018-07-24T05:44:26.436Z,22.52
2018-07-24T05:46:55.151Z,22.57
2018-07-24T05:49:24.151Z,22.60
2018-07-24T05:51:53.868Z,22.65
2018-07-24T05:54:22.834Z,22.67
2018-07-24T05:56:51.651Z,22.72
2018-07-24T05:59:20.986Z,22.74
2018-07-24T06:01:49.855Z,22.80
2018-07-24T06:04:18.536Z,22.85
2018-07-24T06:06:47.336Z,22.89
2018-07-24T06:09:16.067Z,22.95
2018-07-24T06:11:44.731Z,22.98
2018-07-24T06:14:13.675Z,23.00
2018-07-24T06:16:42.449Z,23.08
2018-07-24T06:19:11.451Z,23.13
2018-07-24T06:21:40.562Z,23.18
2018-07-24T06:24:09.535Z,23.26
2018-07-24T06:26:38.324Z,23.34
2018-07-24T06:29:07.130Z,23.42
2018-07-24T06:31:36.158Z,23.48
2018-07-24T06:34:05.188Z,23.53
2018-07-24T06:36:33.927Z,23.58
2018-07-24T06:39:03.592Z,23.65
2018-07-24T06:41:32.208Z,23.68
2018-07-24T06:44:00.939Z,23.72
2018-07-24T06:46:29.744Z,23.77
2018-07-24T06:48:58.392Z,23.83
2018-07-24T06:51:27.015Z,23.87
2018-07-24T06:53:55.656Z,23.90
2018-07-24T06:56:24.275Z,23.97
2018-07-24T06:58:53.172Z,24.02
2018-07-24T07:01:22.045Z,24.11
2018-07-24T07:03:50.826Z,24.20
2018-07-24T07:06:19.579Z,24.27
2018-07-24T07:08:48.561Z,24.34
2018-07-24T07:11:17.390Z,24.40
2018-07-24T07:13:46.076Z,24.49
2018-07-24T07:16:14.882Z,24.55
2018-07-24T07:18:43.761Z,24.60
2018-07-24T07:21:12.329Z,24.67
2018-07-24T07:23:41.024Z,24.74
2018-07-24T07:26:10.210Z,24.81
2018-07-24T07:28:39.015Z,24.88
2018-07-24T07:31:08.087Z,24.96
2018-07-24T07:33:36.929Z,25.06
2018-07-24T07:36:12.228Z,25.14
2018-07-24T07:38:41.056Z,25.21
2018-07-24T07:41:10.117Z,25.29
2018-07-24T07:43:39.009Z,25.38
2018-07-24T07:46:08.596Z,25.48
2018-07-24T07:48:37.140Z,25.56
2018-07-24T07:51:06.445Z,25.63
2018-07-24T07:53:35.396Z,25.72
2018-07-24T07:56:04.821Z,25.81
2018-07-24T07:58:33.732Z,25.89
2018-07-24T08:01:02.393Z,25.98
2018-07-24T08:03:31.376Z,26.08
2018-07-24T08:05:59.961Z,26.16
2018-07-24T08:08:28.677Z,26.23
2018-07-24T08:10:57.419Z,26.31
2018-07-24T08:13:26.319Z,26.40
2018-07-24T08:15:55.094Z,26.46
2018-07-24T08:18:23.736Z,26.51
2018-07-24T08:20:52.442Z,26.58
2018-07-24T08:23:21.167Z,26.63
2018-07-24T08:25:49.839Z,26.70
2018-07-24T08:28:18.969Z,26.82
2018-07-24T08:30:47.618Z,26.91
2018-07-24T08:33:16.552Z,26.99
2018-07-24T08:35:45.802Z,27.06
2018-07-24T08:38:14.369Z,27.15
2018-07-24T08:40:43.084Z,27.21
2018-07-24T08:43:12.900Z,27.29
2018-07-24T08:45:41.695Z,27.38
2018-07-24T08:48:10.464Z,27.45
2018-07-24T08:50:39.370Z,27.54
2018-07-24T08:53:09.161Z,27.63
2018-07-24T08:55:38.805Z,27.73
2018-07-24T08:58:07.716Z,27.80
2018-07-24T09:00:36.719Z,27.83
2018-07-24T09:03:05.885Z,27.91
2018-07-24T09:05:34.733Z,28.03
2018-07-24T09:08:03.546Z,28.14
2018-07-24T09:10:32.368Z,28.22
2018-07-24T09:13:01.490Z,28.27
2018-07-24T09:15:30.357Z,28.31
2018-07-24T09:17:59.112Z,28.33
2018-07-24T09:20:28.268Z,28.36
2018-07-24T09:22:57.963Z,28.46
2018-07-24T09:25:27.258Z,28.59
2018-07-24T09:27:56.099Z,28.63
2018-07-24T09:30:24.911Z,28.66
2018-07-24T09:32:53.847Z,28.76
2018-07-24T09:35:23.482Z,28.83
2018-07-24T09:37:52.233Z,28.91
2018-07-24T09:40:21.131Z,28.98
2018-07-24T09:42:50.202Z,29.07
2018-07-24T09:45:18.796Z,29.14
2018-07-24T09:47:48.377Z,29.23
2018-07-24T09:50:16.937Z,29.37
2018-07-24T09:52:45.658Z,29.50
2018-07-24T09:55:14.649Z,29.67
2018-07-24T09:57:43.611Z,29.77
2018-07-24T10:00:12.649Z,29.87
2018-07-24T10:02:44.615Z,29.93
2018-07-24T10:05:20.054Z,30.03
2018-07-24T10:07:48.984Z,30.15
2018-07-24T10:10:17.625Z,30.28
2018-07-24T10:12:46.328Z,30.44
2018-07-24T10:15:15.128Z,30.63
2018-07-24T10:17:43.883Z,30.80
2018-07-24T10:20:13.573Z,30.92
2018-07-24T10:22:45.572Z,30.94
2018-07-24T10:25:14.524Z,31.01
2018-07-24T10:27:43.312Z,31.01
2018-07-24T10:30:12.084Z,31.03
2018-07-24T10:32:40.804Z,31.09
2018-07-24T10:35:09.821Z,31.20
2018-07-24T10:37:38.474Z,31.34
2018-07-24T10:40:07.275Z,31.28
2018-07-24T10:42:35.903Z,31.30
2018-07-24T10:45:05.420Z,31.44
2018-07-24T10:47:34.303Z,31.53
2018-07-24T10:50:02.919Z,31.72
2018-07-24T10:52:31.731Z,31.90
2018-07-24T10:55:00.702Z,32.08
2018-07-24T10:57:29.593Z,32.22
2018-07-24T10:59:58.546Z,32.39
2018-07-24T11:02:27.474Z,32.47
2018-07-24T11:04:56.458Z,32.48
2018-07-24T11:07:25.362Z,32.55
2018-07-24T11:09:59.484Z,32.74
2018-07-24T11:12:28.761Z,32.90
2018-07-24T11:14:57.583Z,33.09
2018-07-24T11:17:26.482Z,33.36
2018-07-24T11:19:55.251Z,33.50
2018-07-24T11:22:24.281Z,33.55
2018-07-24T11:24:53.379Z,33.73
2018-07-24T11:27:22.150Z,33.89
2018-07-24T11:29:50.711Z,33.96
2018-07-24T11:32:19.728Z,34.00
2018-07-24T11:34:48.635Z,33.94
2018-07-24T11:37:18.333Z,33.98
2018-07-24T11:39:47.168Z,34.17
2018-07-24T11:42:15.981Z,34.35
2018-07-24T11:44:45.027Z,34.55
2018-07-24T11:47:14.001Z,34.69
2018-07-24T11:49:43.071Z,34.84
2018-07-24T11:52:12.169Z,34.99
2018-07-24T11:54:41.226Z,35.19
2018-07-24T11:57:10.511Z,35.35
2018-07-24T11:59:39.666Z,35.56
2018-07-24T12:02:08.606Z,35.59
2018-07-24T12:04:37.306Z,35.47
2018-07-24T12:07:06.474Z,35.60
2018-07-24T12:09:35.271Z,35.75
2018-07-24T12:12:07.106Z,35.97
2018-07-24T12:14:36.068Z,35.84
2018-07-24T12:17:07.893Z,35.93
2018-07-24T12:19:37.140Z,35.92
2018-07-24T12:22:06.129Z,36.01
2018-07-24T12:24:35.051Z,36.22
2018-07-24T12:27:10.438Z,36.32
2018-07-24T12:29:45.635Z,36.34
2018-07-24T12:32:15.097Z,36.56
2018-07-24T12:34:43.871Z,36.70
2018-07-24T12:37:13.448Z,36.91
2018-07-24T12:39:42.444Z,37.10
2018-07-24T12:42:12.018Z,37.21
2018-07-24T12:44:41.013Z,37.30
2018-07-24T12:47:09.659Z,37.45
2018-07-24T12:49:38.503Z,37.65
2018-07-24T12:52:07.487Z,37.58
2018-07-24T12:54:36.293Z,37.78
2018-07-24T12:57:04.972Z,37.85
2018-07-24T12:59:33.567Z,38.06
2018-07-24T13:02:02.498Z,37.89
2018-07-24T13:04:31.377Z,38.11
2018-07-24T13:07:00.367Z,38.44
2018-07-24T13:09:29.303Z,38.75
2018-07-24T13:11:58.522Z,38.96
2018-07-24T13:14:27.734Z,38.95
2018-07-24T13:16:56.599Z,38.84
2018-07-24T13:19:25.313Z,38.91
2018-07-24T13:21:54.202Z,38.92
2018-07-24T13:24:23.288Z,38.74
2018-07-24T13:26:52.066Z,38.69
2018-07-24T13:29:21.040Z,38.78
2018-07-24T13:31:49.815Z,38.65
2018-07-24T13:34:18.746Z,38.50
2018-07-24T13:36:47.921Z,38.71
2018-07-24T13:39:16.925Z,38.50
2018-07-24T13:41:45.618Z,38.66
2018-07-24T13:44:14.814Z,38.81
2018-07-24T13:46:43.620Z,38.95
2018-07-24T13:49:12.467Z,39.10
2018-07-24T13:51:41.251Z,39.15
2018-07-24T13:54:10.190Z,39.07
2018-07-24T13:56:38.903Z,38.99
2018-07-24T13:59:07.771Z,38.93
2018-07-24T14:01:36.354Z,39.08
2018-07-24T14:04:05.352Z,38.87
2018-07-24T14:06:34.065Z,38.62
2018-07-24T14:09:02.904Z,38.63
2018-07-24T14:11:31.777Z,38.38
2018-07-24T14:14:00.587Z,38.01
2018-07-24T14:16:29.292Z,38.28
2018-07-24T14:18:58.495Z,38.52
2018-07-24T14:21:27.193Z,38.48
2018-07-24T14:23:56.078Z,38.43
2018-07-24T14:26:25.328Z,38.56
2018-07-24T14:28:54.194Z,38.63
2018-07-24T14:31:22.872Z,38.62
2018-07-24T14:33:51.978Z,38.66
2018-07-24T14:36:21.145Z,38.73
2018-07-24T14:38:49.794Z,38.93
2018-07-24T14:41:19.026Z,39.10
2018-07-24T14:43:48.936Z,39.18
2018-07-24T14:46:18.791Z,39.18
2018-07-24T14:48:47.466Z,39.29
2018-07-24T14:51:16.376Z,39.45
2018-07-24T14:53:45.372Z,39.34
2018-07-24T14:56:14.152Z,38.79
2018-07-24T14:58:43.468Z,38.71
2018-07-24T15:01:12.569Z,38.49
2018-07-24T15:03:41.875Z,38.75
2018-07-24T15:06:10.926Z,38.99
2018-07-24T15:08:40.054Z,39.25
2018-07-24T15:11:08.709Z,39.55
2018-07-24T15:13:37.398Z,39.78
2018-07-24T15:16:06.569Z,40.05
2018-07-24T15:18:35.561Z,40.31
2018-07-24T15:21:04.608Z,40.73
2018-07-24T15:23:33.323Z,41.05
2018-07-24T15:26:02.241Z,41.23
2018-07-24T15:28:31.276Z,41.43
2018-07-24T15:30:59.889Z,41.61
2018-07-24T15:33:33.645Z,41.39
2018-07-24T15:36:02.755Z,41.45
2018-07-24T15:38:31.750Z,41.35
2018-07-24T15:41:00.617Z,41.70
2018-07-24T15:43:29.992Z,42.07
2018-07-24T15:45:59.155Z,42.67
2018-07-24T15:48:28.198Z,43.14
2018-07-24T15:50:57.281Z,43.17
2018-07-24T15:53:26.187Z,43.33
2018-07-24T15:55:55.323Z,43.62
2018-07-24T15:58:24.293Z,43.74
2018-07-24T16:00:52.980Z,43.89
2018-07-24T16:03:21.976Z,43.31
2018-07-24T16:05:51.511Z,43.45
2018-07-24T16:08:20.373Z,43.10
2018-07-24T16:10:49.544Z,43.48
2018-07-24T16:13:18.364Z,44.04
2018-07-24T16:15:48.659Z,44.23
2018-07-24T16:18:17.562Z,44.56
2018-07-24T16:20:46.604Z,44.71
2018-07-24T16:23:15.303Z,44.51
2018-07-24T16:25:44.442Z,44.62
2018-07-24T16:28:13.345Z,44.39
2018-07-24T16:30:42.919Z,44.10
2018-07-24T16:33:12.013Z,43.06
2018-07-24T16:35:41.027Z,42.95
2018-07-24T16:38:10.368Z,42.19
2018-07-24T16:40:39.205Z,42.14
2018-07-24T16:43:08.143Z,42.24
2018-07-24T16:45:36.830Z,42.33
2018-07-24T16:48:05.659Z,42.26
2018-07-24T16:50:34.768Z,41.54
2018-07-24T16:53:03.761Z,41.35
2018-07-24T16:55:32.803Z,40.96
2018-07-24T16:58:02.594Z,39.99
2018-07-24T17:00:31.207Z,39.23
2018-07-24T17:03:00.008Z,38.36
2018-07-24T17:05:28.806Z,37.87
2018-07-24T17:07:57.774Z,37.54
2018-07-24T17:10:29.764Z,37.06
2018-07-24T17:12:59.001Z,36.66
2018-07-24T17:15:28.293Z,36.35
2018-07-24T17:17:57.541Z,36.12
2018-07-24T17:20:26.287Z,35.95
2018-07-24T17:23:01.649Z,35.70
2018-07-24T17:25:32.119Z,35.40
2018-07-24T17:28:00.794Z,35.17
2018-07-24T17:30:29.662Z,35.06
2018-07-24T17:32:58.479Z,34.97
2018-07-24T17:35:27.745Z,34.84
2018-07-24T17:37:56.348Z,34.84
2018-07-24T17:40:25.287Z,34.74
2018-07-24T17:42:54.043Z,34.60
2018-07-24T17:45:23.030Z,34.49
2018-07-24T17:47:52.086Z,34.40
2018-07-24T17:50:20.953Z,34.28
2018-07-24T17:52:49.638Z,34.24
2018-07-24T17:55:18.602Z,34.13
2018-07-24T17:57:47.572Z,34.09
2018-07-24T18:00:16.206Z,33.99
2018-07-24T18:02:45.277Z,33.90
2018-07-24T18:05:14.437Z,33.78
2018-07-24T18:07:43.966Z,33.68
2018-07-24T18:10:12.714Z,33.60
2018-07-24T18:12:41.433Z,33.48
2018-07-24T18:15:10.235Z,33.35
2018-07-24T18:17:39.746Z,33.27
2018-07-24T18:20:08.685Z,33.22
2018-07-24T18:22:38.219Z,33.15
2018-07-24T18:25:06.941Z,33.04
2018-07-24T18:27:35.718Z,32.90
2018-07-24T18:30:05.114Z,32.81
2018-07-24T18:32:33.959Z,32.76
2018-07-24T18:35:02.613Z,32.70
2018-07-24T18:37:32.105Z,32.59
2018-07-24T18:40:01.073Z,32.54
2018-07-24T18:42:30.507Z,32.46
2018-07-24T18:44:59.109Z,32.38
2018-07-24T18:47:27.641Z,32.32
2018-07-24T18:49:56.820Z,32.26
2018-07-24T18:52:25.898Z,32.17
2018-07-24T18:54:54.628Z,31.98
2018-07-24T18:57:24.110Z,31.82
2018-07-24T18:59:53.093Z,31.70
2018-07-24T19:02:22.279Z,31.60
2018-07-24T19:04:51.415Z,31.48
2018-07-24T19:07:20.009Z,31.37
2018-07-24T19:09:48.981Z,31.27
2018-07-24T19:12:18.091Z,31.16
2018-07-24T19:14:47.420Z,31.05
2018-07-24T19:17:16.289Z,30.96
2018-07-24T19:19:45.306Z,30.90
2018-07-24T19:22:14.237Z,30.83
2018-07-24T19:24:43.393Z,30.71
2018-07-24T19:27:12.453Z,30.60
2018-07-24T19:29:41.677Z,30.55
2018-07-24T19:32:13.679Z,30.48
2018-07-24T19:34:42.626Z,30.42
2018-07-24T19:37:17.051Z,30.35
2018-07-24T19:39:46.366Z,30.28
2018-07-24T19:42:15.434Z,30.21
2018-07-24T19:44:44.394Z,30.16
2018-07-24T19:47:13.396Z,30.10
2018-07-24T19:49:42.338Z,30.06
2018-07-24T19:52:11.388Z,30.00
2018-07-24T19:54:40.074Z,29.93
2018-07-24T19:57:09.843Z,29.86
2018-07-24T19:59:38.304Z,29.78
2018-07-24T20:02:07.086Z,29.70
2018-07-24T20:04:36.221Z,29.63
2018-07-24T20:07:05.090Z,29.54
2018-07-24T20:09:33.880Z,29.46
2018-07-24T20:12:02.719Z,29.42
2018-07-24T20:14:31.163Z,29.35
2018-07-24T20:16:59.700Z,29.32
2018-07-24T20:19:28.124Z,29.31
2018-07-24T20:21:56.654Z,29.27
2018-07-24T20:24:25.377Z,29.24
2018-07-24T20:26:53.985Z,29.23
2018-07-24T20:29:22.653Z,29.24
2018-07-24T20:31:51.442Z,29.24
2018-07-24T20:34:20.030Z,29.21
2018-07-24T20:36:49.016Z,29.19
2018-07-24T20:39:17.492Z,29.16
2018-07-24T20:41:46.176Z,29.12
2018-07-24T20:44:14.943Z,29.08
2018-07-24T20:46:43.660Z,29.08
2018-07-24T20:49:12.125Z,29.08
2018-07-24T20:51:40.809Z,29.05
2018-07-24T20:54:09.976Z,28.97
2018-07-24T20:56:39.293Z,28.89
2018-07-24T20:59:07.946Z,28.80
2018-07-24T21:01:36.899Z,28.74
2018-07-24T21:04:05.922Z,28.69
2018-07-24T21:06:35.228Z,28.65
2018-07-24T21:09:06.768Z,28.63
2018-07-24T21:11:36.934Z,28.61
2018-07-24T21:14:05.684Z,28.53
2018-07-24T21:16:34.495Z,28.49
2018-07-24T21:19:03.122Z,28.46
2018-07-24T21:21:31.749Z,28.38
2018-07-24T21:24:00.933Z,28.27
2018-07-24T21:26:29.476Z,28.18
2018-07-24T21:28:58.360Z,28.08
2018-07-24T21:31:27.089Z,27.96
2018-07-24T21:33:55.632Z,27.83
2018-07-24T21:36:24.278Z,27.72
2018-07-24T21:38:52.989Z,27.57
2018-07-24T21:41:21.525Z,27.49
2018-07-24T21:43:50.044Z,27.42
2018-07-24T21:46:18.630Z,27.36
2018-07-24T21:48:47.084Z,27.26
2018-07-24T21:51:15.821Z,27.20
2018-07-24T21:53:44.405Z,27.09
2018-07-24T21:56:13.071Z,27.08
2018-07-24T21:58:41.595Z,26.99
2018-07-24T22:01:13.337Z,26.98
2018-07-24T22:03:42.911Z,26.97
2018-07-24T22:06:11.830Z,26.94
2018-07-24T22:08:40.810Z,26.89
2018-07-24T22:11:09.443Z,26.84
2018-07-24T22:13:38.173Z,26.77
2018-07-24T22:16:06.752Z,26.73
2018-07-24T22:18:35.338Z,26.67
2018-07-24T22:21:04.045Z,26.60
2018-07-24T22:23:32.557Z,26.54
2018-07-24T22:26:01.209Z,26.50
2018-07-24T22:28:29.697Z,26.47
2018-07-24T22:30:59.343Z,26.47
2018-07-24T22:33:27.870Z,26.41
2018-07-24T22:35:56.357Z,26.31
2018-07-24T22:38:24.894Z,26.22
2018-07-24T22:40:53.436Z,26.16
2018-07-24T22:43:21.908Z,26.13
2018-07-24T22:45:50.578Z,26.11
2018-07-24T22:48:19.165Z,26.12
2018-07-24T22:50:47.893Z,26.12
2018-07-24T22:53:16.404Z,26.08
2018-07-24T22:55:44.884Z,26.05
2018-07-24T22:58:13.532Z,25.98
2018-07-24T23:00:42.096Z,25.91
2018-07-24T23:03:10.552Z,25.84
2018-07-24T23:05:39.045Z,25.80
2018-07-24T23:08:07.569Z,25.77
2018-07-24T23:10:36.013Z,25.71
2018-07-24T23:13:05.426Z,25.71
2018-07-24T23:15:33.944Z,25.69
2018-07-24T23:18:02.593Z,25.63
2018-07-24T23:20:31.108Z,25.58
2018-07-24T23:22:59.582Z,25.57
2018-07-24T23:25:28.039Z,25.54
2018-07-24T23:27:56.461Z,25.55
2018-07-24T23:30:25.028Z,25.50
2018-07-24T23:32:53.581Z,25.48
2018-07-24T23:35:22.037Z,25.42
2018-07-24T23:37:50.475Z,25.37
2018-07-24T23:40:19.076Z,25.36
2018-07-24T23:42:47.583Z,25.34
2018-07-24T23:45:16.124Z,25.25
2018-07-24T23:47:44.978Z,25.20
2018-07-24T23:50:13.715Z,25.18
2018-07-24T23:52:42.410Z,25.13
2018-07-24T23:55:10.903Z,25.05
2018-07-24T23:57:39.364Z,24.98
